Airfield :
LOGIN :

Register | Disclaimer

   EN    FR    IT 

 










Legend :    VFR   Marginal VFR   IFR   Intensive IFR   Very Intensive IFR
Visi :
Ceiling :
>= 8 km
>= 3000ft
5 to 8 km
1000 to 3000 ft
1500m to 5 km
500 to 1000 ft
800 to 1500m
200 to 500 ft
< 800m
< 200 ft
Symbols :   Thunderstorms  Fog  Heavy snow  Heavy precipitations  Wind > 20 kt
SIGMETs :     Misc.  Thunderstorms  Icing  Turbulence  Mountain Waves  Volcanic Ashes







- Airport Elevation : 17 ft
- IATA code : MPL
- Download approach charts


LFMT - Montpellier Méditerranée

CURRENT METAR :
  • 201230Z AUTO 28015KT CAVOK 22/09 Q1009 TEMPO 31015G25KT

EXPIRED METARs :
  • 201200Z AUTO 29014KT 270V330 CAVOK 22/09 Q1009 TEMPO 31015G25KT
  • 201130Z AUTO 30016KT CAVOK 21/09 Q1009 TEMPO 31015G25KT
  • 201100Z AUTO 28017KT CAVOK 21/10 Q1009 TEMPO 31015G25KT
  • 201030Z AUTO 29016KT CAVOK 21/10 Q1009 TEMPO 31015G25KT
  • 201000Z AUTO 30017KT CAVOK 21/10 Q1009 TEMPO 31015G25KT
  • 200930Z AUTO 30019KT 9999 FEW044 SCT110 20/09 Q1009 TEMPO 31015G25KT

TAF TAF LFMT
Valid from the 20 at 09:00 until the 21 at 09:00 UTC


200800Z 2009/2109 30012KT CAVOK
TEMPO 2010/2017 31015G25KT
ATIS : +33 4 67 13 11 70
No reported NOTAMs for that airfield.



MET'MAP, your aeronautical weather chart ! - Copyright ORBIFLY December 2007 - Disclaimer

ORBIFLY MET'MAP TEAM :

Programming & Development : Alexandra Zaïnal
Concept & Development : Baudouin d'Aumeries
Co-Development & Prog : Marc-Olivier Méhu
Technical & hardware support : Manuel Goepfert

Contact : metmap@orbifly.com




SOURCES & CREDITS :

   NOAA